Time;durP1;ratioP1;P1;durP2;ratioP2;P2;SDS_P1;SDS_P2;PMS_P1;PMS_P2;Temp;Humidity;BMP_temperature;BMP_pressure;BME280_temperature;BME280_humidity;BME280_pressure;Samples;Min_cycle;Max_cycle;Signal;HPM_P1;HPM_P2
2023/10/13 00:00:36;;;;;;;20.10;13.80;;;;;;;17.02;100.00;100711.09;5027582;28;20288;-79
2023/10/13 00:03:03;;;;;;;20.60;14.32;;;;;;;17.05;100.00;100716.00;5018993;28;20052;-80
2023/10/13 00:05:30;;;;;;;19.75;13.82;;;;;;;17.09;100.00;100710.13;5026930;28;20143;-79
2023/10/13 00:08:00;;;;;;;16.67;12.65;;;;;;;17.17;100.00;100717.88;5018810;28;20058;-79
2023/10/13 00:10:27;;;;;;;20.92;14.48;;;;;;;17.17;100.00;100706.50;5018768;28;20045;-79
2023/10/13 00:12:54;;;;;;;18.13;13.35;;;;;;;17.13;100.00;100702.63;5018795;28;20136;-79
2023/10/13 00:15:27;;;;;;;17.95;13.50;;;;;;;17.05;100.00;100700.13;5019367;28;20140;-79
2023/10/13 00:17:55;;;;;;;21.25;13.55;;;;;;;17.09;100.00;100701.38;5011904;28;20068;-79
2023/10/13 00:20:39;;;;;;;19.27;13.52;;;;;;;17.05;100.00;100695.66;5026230;28;20407;-79
2023/10/13 00:23:06;;;;;;;19.02;13.85;;;;;;;17.08;100.00;100689.97;5018363;28;20050;-79
2023/10/13 00:25:43;;;;;;;21.33;13.63;;;;;;;16.96;100.00;100688.94;5018724;28;20054;-79
2023/10/13 00:28:10;;;;;;;20.27;13.30;;;;;;;17.00;100.00;100684.88;5023759;28;20507;-79
2023/10/13 00:30:38;;;;;;;17.13;13.32;;;;;;;16.99;100.00;100680.63;5020069;28;20130;-79
2023/10/13 00:33:05;;;;;;;18.70;12.80;;;;;;;16.99;100.00;100680.63;5018179;28;20084;-79
2023/10/13 00:35:36;;;;;;;22.23;13.38;;;;;;;17.04;100.00;100685.28;5018369;28;20069;-79
2023/10/13 00:38:12;;;;;;;18.30;13.02;;;;;;;17.11;100.00;100678.19;5018303;28;20475;-79
2023/10/13 00:40:44;;;;;;;21.23;13.27;;;;;;;17.07;100.00;100669.03;5018438;28;20049;-79
2023/10/13 00:46:05;;;;;;;21.30;13.93;;;;;;;16.90;100.00;100679.97;5018317;28;20515;-79
2023/10/13 00:48:33;;;;;;;20.73;13.93;;;;;;;16.90;100.00;100679.16;5017210;28;20069;-79
2023/10/13 00:51:02;;;;;;;21.98;14.50;;;;;;;16.92;100.00;100670.00;5018666;28;20050;-79
2023/10/13 00:53:33;;;;;;;23.20;14.73;;;;;;;16.96;100.00;100669.63;5017806;28;20060;-79
2023/10/13 00:56:05;;;;;;;18.25;14.07;;;;;;;17.03;100.00;100667.78;5018069;28;20054;-79
2023/10/13 00:58:31;;;;;;;;;;;;;;;17.11;100.00;100659.69;5018514;28;20058;-79
2023/10/13 01:01:17;;;;;;;14.98;12.70;;;;;;;17.01;100.00;100656.63;5022214;28;20106;-79
2023/10/13 01:03:44;;;;;;;20.02;14.48;;;;;;;17.05;100.00;100655.19;5021939;28;20119;-79
2023/10/13 01:06:12;;;;;;;19.85;14.52;;;;;;;17.09;100.00;100648.50;5023368;28;20512;-79
2023/10/13 01:08:38;;;;;;;22.98;13.65;;;;;;;17.05;100.00;100641.97;5017575;28;20064;-79
2023/10/13 01:11:06;;;;;;;21.23;13.63;;;;;;;17.08;100.00;100644.22;5017342;28;20098;-79
2023/10/13 01:13:36;;;;;;;21.63;14.45;;;;;;;17.03;100.00;100646.66;5018071;28;20566;-79
2023/10/13 01:16:04;;;;;;;16.90;13.80;;;;;;;17.02;100.00;100637.91;5017649;28;20431;-79
2023/10/13 01:18:30;;;;;;;19.42;14.20;;;;;;;17.06;100.00;100631.19;5018618;28;20373;-79
2023/10/13 01:20:59;;;;;;;23.42;15.05;;;;;;;16.94;100.00;100626.72;5024499;28;20056;-79
2023/10/13 01:23:28;;;;;;;24.65;14.60;;;;;;;16.88;100.00;100623.84;5024220;28;20053;-79
2023/10/13 01:25:56;;;;;;;19.20;14.48;;;;;;;16.89;100.00;100619.38;5027129;28;20480;-79
2023/10/13 01:28:21;;;;;;;22.58;14.70;;;;;;;16.94;100.00;100616.13;5018481;28;20054;-79
2023/10/13 01:30:50;;;;;;;20.27;14.52;;;;;;;17.01;100.00;100615.16;5013474;28;20056;-79
2023/10/13 01:33:16;;;;;;;19.95;15.02;;;;;;;16.99;100.00;100616.34;5021894;28;20053;-79
2023/10/13 01:35:47;;;;;;;20.75;16.38;;;;;;;16.83;100.00;100606.94;5015112;28;20052;-79
2023/10/13 01:38:13;;;;;;;22.77;16.05;;;;;;;16.95;100.00;100607.19;5014073;28;20050;-79
2023/10/13 01:40:42;;;;;;;22.13;14.77;;;;;;;17.00;100.00;100604.78;5013869;28;20567;-79
2023/10/13 01:43:11;;;;;;;24.20;15.68;;;;;;;16.99;100.00;100600.50;5013568;28;20479;-78
2023/10/13 01:45:49;;;;;;;22.60;15.55;;;;;;;17.02;100.00;100603.53;5021324;28;20061;-79
2023/10/13 01:48:16;;;;;;;19.40;15.85;;;;;;;17.01;100.00;100601.94;5016278;28;20091;-78
2023/10/13 01:50:47;;;;;;;21.08;14.27;;;;;;;16.97;100.00;100584.84;5019481;28;20053;-79
2023/10/13 01:53:13;;;;;;;20.23;14.80;;;;;;;16.98;100.00;100583.00;5019115;28;20058;-79
2023/10/13 01:55:43;;;;;;;20.92;15.63;;;;;;;16.98;100.00;100583.00;5020737;28;20064;-79
2023/10/13 01:58:14;;;;;;;19.42;15.30;;;;;;;16.95;100.00;100573.66;5022606;28;20060;-79
2023/10/13 02:00:42;;;;;;;23.55;15.43;;;;;;;16.90;100.00;100576.88;5017129;28;20042;-79
2023/10/13 02:03:14;;;;;;;20.88;15.05;;;;;;;16.98;100.00;100585.66;5016818;28;20081;-78
2023/10/13 02:05:44;;;;;;;23.65;15.43;;;;;;;16.89;100.00;100580.53;5020411;28;20049;-79
2023/10/13 02:08:11;;;;;;;21.65;14.52;;;;;;;16.90;100.00;100570.78;5023476;28;20129;-79
2023/10/13 02:10:43;;;;;;;32.15;15.60;;;;;;;17.00;100.00;100573.06;5023691;28;20056;-79
2023/10/13 02:13:15;;;;;;;21.20;14.93;;;;;;;16.99;100.00;100568.78;5013060;28;20077;-79
2023/10/13 02:15:43;;;;;;;22.35;14.95;;;;;;;16.98;100.00;100562.69;5017904;28;20430;-79
2023/10/13 02:18:10;;;;;;;19.42;15.27;;;;;;;17.08;100.00;100562.28;5017522;28;20046;-79
2023/10/13 02:20:42;;;;;;;18.40;14.82;;;;;;;17.05;100.00;100560.03;5017570;28;20500;-79
2023/10/13 02:23:10;;;;;;;;;;;;;;;16.84;100.00;100559.16;5018665;28;20057;-79
2023/10/13 02:25:42;;;;;;;22.05;15.48;;;;;;;16.86;100.00;100559.78;5025401;28;19921;-79
2023/10/13 02:28:13;;;;;;;22.25;15.75;;;;;;;16.89;100.00;100551.47;5016775;28;20078;-79
2023/10/13 02:30:44;;;;;;;18.95;15.50;;;;;;;16.90;100.00;100553.09;5017462;28;20053;-79
2023/10/13 02:33:11;;;;;;;23.55;16.50;;;;;;;16.87;100.00;100547.38;5025673;28;20045;-79
2023/10/13 02:35:50;;;;;;;23.27;15.48;;;;;;;17.01;100.00;100546.41;5025567;28;20058;-79
2023/10/13 02:38:16;;;;;;;23.58;15.63;;;;;;;16.92;100.00;100539.69;5024645;28;20076;-79
2023/10/13 02:40:43;;;;;;;22.38;16.17;;;;;;;16.99;100.00;100537.88;5019289;28;20568;-79
2023/10/13 02:43:10;;;;;;;20.90;15.48;;;;;;;17.11;100.00;100525.66;5021048;28;20081;-79
2023/10/13 02:45:37;;;;;;;21.02;15.65;;;;;;;17.07;100.00;100534.19;5022589;28;20054;-79
2023/10/13 02:48:12;;;;;;;19.42;14.82;;;;;;;17.06;100.00;100530.75;5022603;28;20058;-80
2023/10/13 02:50:43;;;;;;;22.17;15.73;;;;;;;17.03;100.00;100511.81;5029860;28;20492;-79
2023/10/13 02:53:12;;;;;;;19.77;15.93;;;;;;;16.94;100.00;100518.34;5029254;28;20461;-80
2023/10/13 02:55:49;;;;;;;22.83;16.15;;;;;;;16.88;100.00;100520.75;5018080;28;20500;-79
2023/10/13 02:58:17;;;;;;;23.08;16.20;;;;;;;16.92;100.00;100516.72;5026920;28;20077;-79
2023/10/13 03:00:44;;;;;;;22.50;16.75;;;;;;;16.99;100.00;100519.38;5026293;28;20045;-79
2023/10/13 03:03:10;;;;;;;22.77;16.48;;;;;;;17.02;100.00;100507.56;5018023;28;20056;-79
2023/10/13 03:05:39;;;;;;;21.80;16.15;;;;;;;17.02;100.00;100505.72;5018040;28;20077;-79
2023/10/13 03:08:06;;;;;;;23.20;16.13;;;;;;;16.99;100.00;100502.69;5018032;28;20537;-79
2023/10/13 03:10:32;;;;;;;24.65;16.13;;;;;;;16.98;100.00;100496.59;5025780;28;20072;-78
2023/10/13 03:13:00;;;;;;;25.17;17.23;;;;;;;17.05;100.00;100491.28;5021902;28;20104;-79
2023/10/13 03:15:32;;;;;;;21.08;17.02;;;;;;;16.91;100.00;100487.84;5015381;28;20050;-78
2023/10/13 03:18:02;;;;;;;21.33;15.63;;;;;;;17.00;100.00;100496.41;5017663;28;20053;-79
2023/10/13 03:20:31;;;;;;;21.58;16.55;;;;;;;16.88;100.00;100488.22;5018392;28;20130;-79
2023/10/13 03:22:57;;;;;;;21.75;16.98;;;;;;;16.93;100.00;100485.81;5025852;28;20054;-79
2023/10/13 03:25:29;;;;;;;24.65;17.10;;;;;;;16.97;100.00;100479.09;5026412;28;20061;-78
2023/10/13 03:28:01;;;;;;;23.98;17.25;;;;;;;17.08;100.00;100467.91;5025671;28;20050;-79
2023/10/13 03:30:35;;;;;;;;;;;;;;;17.11;100.00;100471.97;5018283;28;20305;-78
2023/10/13 03:33:07;;;;;;;26.55;17.25;;;;;;;17.05;100.00;100456.94;5024317;28;19921;-79
2023/10/13 03:35:52;;;;;;;21.67;17.33;;;;;;;16.99;100.00;100448.00;5026562;28;20045;-79
2023/10/13 03:38:19;;;;;;;23.80;17.13;;;;;;;16.94;100.00;100453.06;5018160;28;20061;-79
2023/10/13 03:41:07;;;;;;;30.80;19.27;;;;;;;17.05;100.00;100449.81;5018770;28;20087;-79
2023/10/13 03:43:44;;;;;;;21.75;17.35;;;;;;;17.01;100.00;100443.31;5018837;28;20050;-79
2023/10/13 03:46:12;;;;;;;22.77;17.40;;;;;;;16.97;100.00;100434.16;5018000;28;20049;-79
2023/10/13 03:48:52;;;;;;;24.52;17.17;;;;;;;16.98;100.00;100435.00;5017972;28;20134;-79
2023/10/13 03:51:18;;;;;;;25.52;17.75;;;;;;;17.00;100.00;100432.97;5026804;28;20045;-78
2023/10/13 03:53:52;;;;;;;22.67;17.55;;;;;;;16.97;100.00;100422.78;5021294;28;20100;-79
2023/10/13 03:56:26;;;;;;;35.67;18.27;;;;;;;17.00;100.00;100422.38;5030961;28;20042;-78
2023/10/13 03:58:54;;;;;;;25.45;17.27;;;;;;;16.98;100.00;100419.13;5013475;28;20058;-79
2023/10/13 04:01:31;;;;;;;26.05;17.95;;;;;;;16.98;100.00;100413.84;5041077;22;20451;-81
2023/10/13 04:04:03;;;;;;;27.30;17.92;;;;;;;16.98;100.00;100424.41;5024847;28;20038;-80
2023/10/13 04:06:50;;;;;;;28.33;18.60;;;;;;;17.03;100.00;100428.06;5040112;28;20125;-81
2023/10/13 04:13:01;;;;;;;27.33;17.90;;;;;;;17.00;100.00;100422.38;5010834;28;20109;-81
2023/10/13 04:15:21;;;;;;;25.95;18.65;;;;;;;17.02;100.00;100421.13;5006466;28;20580;-82
2023/10/13 04:17:50;;;;;;;22.73;17.58;;;;;;;17.09;100.00;100418.50;5005990;28;20078;-81
2023/10/13 04:20:32;;;;;;;23.55;17.45;;;;;;;17.11;100.00;100412.00;5010238;28;20050;-81
2023/10/13 04:23:19;;;;;;;23.88;17.60;;;;;;;17.19;100.00;100413.63;5016435;28;20060;-81
2023/10/13 04:28:37;;;;;;;26.00;18.25;;;;;;;17.16;100.00;100406.91;5023877;28;20064;-82
2023/10/13 04:31:12;;;;;;;23.98;18.17;;;;;;;17.02;100.00;100393.88;5023000;28;20092;-81
2023/10/13 04:33:52;;;;;;;21.27;18.02;;;;;;;17.04;100.00;100397.97;5022009;28;20054;-81
2023/10/13 04:36:36;;;;;;;26.80;20.08;;;;;;;17.05;100.00;100390.84;5022900;28;20511;-80
2023/10/13 04:39:10;;;;;;;23.92;18.08;;;;;;;17.08;100.00;100390.44;5018702;28;20085;-81
2023/10/13 04:41:39;;;;;;;27.10;18.63;;;;;;;17.08;100.00;100387.78;5026080;28;20053;-81
2023/10/13 04:44:47;;;;;;;25.75;19.60;;;;;;;17.09;100.00;100378.84;5023087;28;20108;-81
2023/10/13 04:47:07;;;;;;;27.52;17.98;;;;;;;17.10;100.00;100369.91;5014140;28;20049;-81
2023/10/13 04:49:51;;;;;;;26.67;18.85;;;;;;;17.08;100.00;100377.22;5022149;28;20077;-81
2023/10/13 04:55:24;;;;;;;29.05;18.67;;;;;;;17.15;100.00;100362.16;4979416;28;20093;-81
2023/10/13 04:58:00;;;;;;;28.30;19.03;;;;;;;17.12;100.00;100370.50;5012894;28;20113;-80
2023/10/13 05:44:56;;;;;;;27.50;18.80;;;;;;;17.43;100.00;100365.38;4977467;28;20097;-81
2023/10/13 05:47:46;;;;;;;27.08;18.88;;;;;;;17.48;100.00;100365.59;5012388;28;20049;-79
2023/10/13 05:50:28;;;;;;;24.20;17.95;;;;;;;17.54;100.00;100370.00;5025824;28;20149;-81
2023/10/13 06:28:43;;;;;;;29.92;19.40;;;;;;;17.43;100.00;100348.69;5008673;28;20061;-81
2023/10/13 06:31:20;;;;;;;25.77;18.45;;;;;;;17.45;100.00;100346.66;5010472;28;20057;-82
2023/10/13 06:33:47;;;;;;;31.80;20.30;;;;;;;17.48;100.00;100339.13;5018421;28;20058;-82
2023/10/13 06:36:14;;;;;;;26.38;19.55;;;;;;;17.53;100.00;100328.72;5018270;28;20121;-83
2023/10/13 06:38:41;;;;;;;29.90;19.15;;;;;;;17.58;100.00;100328.91;5018933;28;20077;-82
2023/10/13 06:41:09;;;;;;;28.27;19.38;;;;;;;17.57;100.00;100329.09;5018045;28;20046;-82
2023/10/13 06:43:39;;;;;;;28.80;18.88;;;;;;;17.63;100.00;100327.47;5017761;28;20165;-83
2023/10/13 06:46:14;;;;;;;28.80;17.75;;;;;;;17.67;100.00;100328.69;5018164;28;20049;-82
2023/10/13 06:48:41;;;;;;;25.40;17.60;;;;;;;17.69;100.00;100305.50;5018260;28;20061;-83
2023/10/13 06:51:17;;;;;;;23.67;17.15;;;;;;;17.70;100.00;100300.00;5018068;28;20070;-83
2023/10/13 06:53:46;;;;;;;24.08;16.90;;;;;;;17.74;100.00;100297.72;5018727;28;20081;-82
2023/10/13 06:56:16;;;;;;;23.55;16.55;;;;;;;17.78;100.00;100296.28;5010330;28;20069;-83
2023/10/13 06:58:46;;;;;;;26.90;17.23;;;;;;;17.80;100.00;100291.59;5017037;28;20061;-82
2023/10/13 07:01:21;;;;;;;23.77;16.23;;;;;;;17.86;100.00;100283.63;5017513;28;20052;-83
2023/10/13 07:03:52;;;;;;;23.45;15.45;;;;;;;17.98;100.00;100283.75;5018332;28;20058;-83
2023/10/13 07:06:19;;;;;;;23.48;15.65;;;;;;;18.06;100.00;100274.75;5018912;28;20053;-83
2023/10/13 07:08:51;;;;;;;24.90;15.68;;;;;;;18.10;100.00;100284.69;5017981;28;20543;-83
2023/10/13 07:11:32;;;;;;;25.08;14.07;;;;;;;18.10;100.00;100287.34;5017630;28;20050;-81
2023/10/13 07:14:00;;;;;;;25.23;14.93;;;;;;;18.21;100.00;100281.38;5014618;28;20050;-83
2023/10/13 07:16:35;;;;;;;26.25;14.20;;;;;;;18.17;100.00;100274.88;4999760;28;20508;-81
2023/10/13 07:19:05;;;;;;;23.67;13.70;;;;;;;18.23;100.00;100281.16;4998225;28;20096;-82
2023/10/13 07:21:32;;;;;;;24.42;13.63;;;;;;;18.35;100.00;100281.28;5007349;28;20101;-82
2023/10/13 07:24:08;;;;;;;25.88;14.13;;;;;;;18.39;100.00;100275.34;5017747;28;20137;-79
2023/10/13 07:26:35;;;;;;;22.40;13.15;;;;;;;18.46;100.00;100276.06;5018524;28;20054;-81
2023/10/13 07:29:01;;;;;;;19.02;13.00;;;;;;;18.45;100.00;100263.03;5018987;28;20129;-82
2023/10/13 07:31:29;;;;;;;22.13;12.73;;;;;;;18.42;100.00;100258.22;5022445;28;20053;-82
2023/10/13 07:34:05;;;;;;;18.25;12.43;;;;;;;18.51;100.00;100267.47;5021583;28;20219;-82
2023/10/13 07:36:39;;;;;;;23.70;12.63;;;;;;;18.54;100.00;100272.34;5021903;28;20096;-82
2023/10/13 07:39:20;;;;;;;17.02;12.75;;;;;;;18.63;100.00;100271.09;5022122;28;20058;-80
2023/10/13 07:41:51;;;;;;;20.45;13.25;;;;;;;18.67;100.00;100261.69;5022154;28;20057;-82
2023/10/13 07:44:19;;;;;;;20.02;12.93;;;;;;;18.68;100.00;100259.84;5014811;28;20054;-82
2023/10/13 07:46:57;;;;;;;22.70;12.55;;;;;;;18.72;100.00;100264.50;5021440;28;20473;-81
2023/10/13 07:49:24;;;;;;;22.67;12.00;;;;;;;18.75;100.00;100256.09;5021894;28;20069;-83
2023/10/13 07:51:57;;;;;;;24.02;11.93;;;;;;;18.85;100.00;100252.97;5020893;28;20046;-83
2023/10/13 07:54:24;;;;;;;23.90;12.23;;;;;;;18.81;100.00;100249.94;5023108;28;20050;-82
2023/10/13 07:56:50;;;;;;;22.70;11.98;;;;;;;18.86;100.00;100244.78;5022475;28;20073;-83
2023/10/13 07:59:22;;;;;;;22.23;11.13;;;;;;;18.88;100.00;100237.44;5022163;28;20137;-82
2023/10/13 08:02:11;;;;;;;19.27;11.60;;;;;;;18.94;100.00;100235.72;5013827;28;20057;-83
2023/10/13 08:04:37;;;;;;;18.02;11.00;;;;;;;19.10;100.00;100224.53;5021495;28;20060;-82
2023/10/13 08:07:12;;;;;;;25.60;11.70;;;;;;;19.16;100.00;100214.88;5021125;28;20073;-83
2023/10/13 08:09:41;;;;;;;20.73;10.63;;;;;;;19.28;100.00;100225.56;5020940;28;20137;-83
2023/10/13 08:12:11;;;;;;;22.08;11.55;;;;;;;19.25;100.00;100213.53;5016868;28;20057;-83
2023/10/13 08:14:40;;;;;;;16.83;10.57;;;;;;;19.33;100.00;100202.63;5019040;28;20050;-83
2023/10/13 08:17:10;;;;;;;23.27;10.88;;;;;;;19.36;100.00;100196.88;5007199;28;20054;-82
2023/10/13 08:19:41;;;;;;;25.42;11.13;;;;;;;19.36;100.00;100186.28;5014689;28;20061;-82
2023/10/13 08:22:35;;;;;;;21.25;11.85;;;;;;;19.39;100.00;100185.78;5022218;28;20045;-82
2023/10/13 08:25:24;;;;;;;23.75;11.55;;;;;;;19.50;100.00;100177.06;5017039;28;20074;-82
2023/10/13 08:28:04;;;;;;;21.20;10.65;;;;;;;19.63;100.00;100192.03;5021276;28;20054;-81
2023/10/13 08:30:42;;;;;;;19.48;10.85;;;;;;;19.68;100.00;100188.72;5023337;28;20076;-81
2023/10/13 08:33:16;;;;;;;19.42;10.63;;;;;;;19.89;100.00;100201.47;5023292;28;20049;-82
2023/10/13 08:35:55;;;;;;;23.00;10.95;;;;;;;20.04;100.00;100193.06;5024303;28;20057;-83
2023/10/13 08:38:28;;;;;;;18.33;9.75;;;;;;;20.04;100.00;100199.19;5025686;28;20104;-82
2023/10/13 08:43:45;;;;;;;20.10;11.30;;;;;;;20.07;100.00;100187.31;5022357;28;20529;-84
2023/10/13 08:46:25;;;;;;;19.98;9.85;;;;;;;20.12;100.00;100200.72;5020670;28;20209;-83
2023/10/13 08:49:04;;;;;;;19.15;10.52;;;;;;;20.21;100.00;100188.72;5012974;28;20056;-83
2023/10/13 08:51:44;;;;;;;21.58;9.07;;;;;;;20.35;100.00;100179.47;5012448;28;20046;-84
2023/10/13 08:54:20;;;;;;;17.40;9.32;;;;;;;20.40;100.00;100171.63;5022733;28;20117;-84
2023/10/13 08:56:54;;;;;;;21.70;9.02;;;;;;;20.57;100.00;100169.09;5019951;28;20065;-83
2023/10/13 08:59:33;;;;;;;17.63;9.02;;;;;;;20.95;100.00;100165.09;5019527;28;20066;-83
2023/10/13 09:01:59;;;;;;;18.92;8.23;;;;;;;21.20;100.00;100149.66;5021763;28;20042;-82
2023/10/13 09:04:33;;;;;;;20.98;8.52;;;;;;;21.34;100.00;100139.53;5019165;28;20148;-80
2023/10/13 09:07:07;;;;;;;15.05;7.90;;;;;;;21.71;97.25;100124.78;5014561;28;20054;-83
2023/10/13 09:09:59;;;;;;;14.45;8.00;;;;;;;21.92;96.03;100122.41;5020764;28;20057;-83
2023/10/13 09:12:35;;;;;;;16.25;7.90;;;;;;;22.06;92.71;100116.56;5021783;28;20045;-83
2023/10/13 09:15:05;;;;;;;16.38;8.20;;;;;;;22.18;91.22;100106.63;5013368;28;20140;-83
2023/10/13 09:17:34;;;;;;;15.20;7.97;;;;;;;22.23;89.21;100103.19;5022014;28;20081;-84
2023/10/13 09:20:23;;;;;;;18.67;8.13;;;;;;;22.23;89.06;100097.06;5011785;28;20042;-83
2023/10/13 09:22:54;;;;;;;17.67;8.05;;;;;;;22.32;88.74;100099.06;5022700;28;20050;-82
2023/10/13 09:25:23;;;;;;;15.65;8.38;;;;;;;22.17;86.85;100081.03;5022576;28;20492;-84
2023/10/13 09:27:53;;;;;;;17.42;8.93;;;;;;;22.07;86.16;100080.88;5021143;28;20114;-84
2023/10/13 09:30:20;;;;;;;12.15;7.85;;;;;;;22.15;85.94;100075.13;5021212;28;20060;-84
2023/10/13 09:32:48;;;;;;;16.48;8.38;;;;;;;22.12;85.68;100067.63;5021728;28;20061;-83
2023/10/13 09:35:22;;;;;;;18.33;8.60;;;;;;;22.20;85.52;100061.06;5014382;28;20061;-83
2023/10/13 09:37:50;;;;;;;16.00;8.50;;;;;;;22.21;84.52;100056.53;5020968;28;20084;-84
2023/10/13 09:40:28;;;;;;;16.77;8.70;;;;;;;22.16;83.93;100057.28;5020473;28;20109;-82
2023/10/13 09:42:56;;;;;;;11.23;8.32;;;;;;;22.21;84.00;100054.69;5021100;28;20496;-83
2023/10/13 09:45:28;;;;;;;17.98;8.32;;;;;;;22.21;84.68;100054.69;5020594;28;20050;-82
2023/10/13 09:48:06;;;;;;;17.35;9.07;;;;;;;22.30;84.71;100047.84;5013760;28;20065;-82
2023/10/13 09:50:40;;;;;;;16.60;8.65;;;;;;;22.35;82.77;100033.78;5020882;28;20077;-83
2023/10/13 09:53:08;;;;;;;22.85;9.90;;;;;;;22.33;82.32;100026.03;5020198;28;20049;-82
2023/10/13 09:55:39;;;;;;;13.52;8.80;;;;;;;22.51;82.51;100030.25;5021387;28;20053;-84
2023/10/13 09:58:10;;;;;;;21.65;9.40;;;;;;;22.65;82.54;100020.03;5021034;28;20053;-81
2023/10/13 10:00:48;;;;;;;18.27;8.98;;;;;;;22.75;81.59;99999.59;5044600;22;20024;-77
2023/10/13 10:03:30;;;;;;;13.68;9.35;;;;;;;22.95;79.83;99993.69;5034494;28;20119;-80
2023/10/13 10:06:06;;;;;;;16.87;8.87;;;;;;;23.18;80.09;100014.69;5041858;28;20052;-79
2023/10/13 10:08:33;;;;;;;19.30;9.48;;;;;;;23.38;79.71;100015.94;5043857;28;20366;-78
2023/10/13 10:11:27;;;;;;;17.67;9.50;;;;;;;23.37;77.89;100001.78;5045204;28;20419;-79
2023/10/13 10:14:04;;;;;;;15.75;8.93;;;;;;;23.61;78.35;100009.47;5035923;28;20045;-77
2023/10/13 10:16:37;;;;;;;17.73;8.65;;;;;;;;;;5043571;28;20052;-78
2023/10/13 10:19:07;;;;;;;14.00;9.27;;;;;;;23.77;76.93;100003.16;5042390;28;20530;-78
2023/10/13 10:21:36;;;;;;;17.77;8.98;;;;;;;23.82;76.41;100008.53;5039479;28;20460;-78
2023/10/13 10:24:08;;;;;;;15.35;9.00;;;;;;;23.89;76.79;100009.09;5044406;28;20428;-79
2023/10/13 10:26:34;;;;;;;19.70;9.55;;;;;;;23.91;76.13;100009.66;5040176;28;20090;-78
2023/10/13 10:29:13;;;;;;;22.00;9.60;;;;;;;24.09;75.56;100001.22;5043356;28;20053;-78
2023/10/13 10:31:45;;;;;;;18.00;8.88;;;;;;;24.02;75.48;100003.31;5043894;28;20158;-79
2023/10/13 10:34:13;;;;;;;15.75;8.98;;;;;;;24.09;76.34;100019.13;5045188;28;20367;-79
2023/10/13 10:36:43;;;;;;;13.70;8.32;;;;;;;24.26;75.77;99997.56;5043839;28;20207;-78
2023/10/13 10:39:12;;;;;;;16.23;8.27;;;;;;;24.42;75.29;100004.56;5039493;28;20060;-79
2023/10/13 10:41:44;;;;;;;18.10;9.90;;;;;;;24.43;74.92;99995.50;5044457;28;20175;-78
2023/10/13 10:44:16;;;;;;;17.55;9.38;;;;;;;24.62;75.21;99985.09;5044067;28;20084;-79
2023/10/13 10:46:52;;;;;;;21.05;8.93;;;;;;;24.75;74.04;99971.22;5043751;28;20049;-78
2023/10/13 10:49:27;;;;;;;23.30;9.45;;;;;;;24.50;73.41;99963.94;5036598;28;20455;-77
2023/10/13 10:52:00;;;;;;;17.60;9.00;;;;;;;24.72;73.39;99980.56;5038303;28;20107;-79
2023/10/13 10:54:31;;;;;;;20.35;8.93;;;;;;;24.62;72.75;99971.72;5040705;28;20045;-78
2023/10/13 10:57:10;;;;;;;20.17;8.95;;;;;;;24.76;73.24;99973.63;5042058;28;20119;-79
2023/10/13 10:59:38;;;;;;;13.02;8.68;;;;;;;24.67;72.32;99961.84;5044016;28;20072;-79
2023/10/13 11:02:06;;;;;;;19.52;9.38;;;;;;;24.60;72.26;99958.59;5045745;28;20042;-79
2023/10/13 11:04:35;;;;;;;19.67;8.32;;;;;;;24.63;71.97;99949.25;5052336;28;20044;-79
2023/10/13 11:07:03;;;;;;;17.38;8.57;;;;;;;24.66;71.79;99946.84;5059555;28;20136;-79
2023/10/13 11:09:36;;;;;;;22.83;8.80;;;;;;;24.68;71.64;99943.91;5056524;28;20063;-79
2023/10/13 11:12:22;;;;;;;14.65;9.13;;;;;;;24.94;70.93;99942.06;5049412;28;20504;-80
2023/10/13 11:14:50;;;;;;;21.52;10.10;;;;;;;24.86;70.95;99937.25;5053225;28;20077;-80
2023/10/13 11:17:25;;;;;;;29.25;8.93;;;;;;;24.48;71.54;99931.31;5065548;28;20021;-81
2023/10/13 11:19:52;;;;;;;25.60;9.20;;;;;;;24.43;72.14;99942.81;5066491;28;20113;-80
2023/10/13 11:22:33;;;;;;;17.52;8.55;;;;;;;24.40;72.12;99927.28;5061076;28;20049;-80
2023/10/13 11:25:03;;;;;;;19.45;8.60;;;;;;;24.32;71.78;99921.66;5061278;28;20140;-80
2023/10/13 11:27:55;;;;;;;17.40;9.07;;;;;;;24.20;72.40;99919.16;5052207;28;20430;-81
2023/10/13 11:30:25;;;;;;;22.67;8.97;;;;;;;24.13;72.40;99926.63;5044154;28;20112;-80
2023/10/13 11:32:58;;;;;;;20.65;8.88;;;;;;;24.05;72.59;99921.81;5049347;28;20115;-81
2023/10/13 11:35:25;;;;;;;15.63;8.20;;;;;;;23.97;72.21;99916.97;5040856;28;20102;-80
2023/10/13 11:37:56;;;;;;;15.70;8.40;;;;;;;23.99;72.63;99925.53;5040247;28;20136;-80
2023/10/13 11:40:43;;;;;;;20.70;8.47;;;;;;;24.12;72.43;99915.13;5040508;28;20063;-81
2023/10/13 11:43:13;;;;;;;23.67;9.13;;;;;;;24.16;72.46;99910.06;5040379;28;20323;-81
2023/10/13 11:45:53;;;;;;;16.95;8.18;;;;;;;24.09;71.72;99893.50;5040142;28;20049;-80
2023/10/13 11:48:33;;;;;;;17.80;8.30;;;;;;;24.08;72.55;99902.59;5040108;28;20060;-81
2023/10/13 11:51:00;;;;;;;20.67;8.38;;;;;;;24.01;72.41;99908.16;5035848;28;20049;-80
2023/10/13 11:53:28;;;;;;;21.15;8.98;;;;;;;24.10;72.25;99895.09;5040317;28;20141;-81
2023/10/13 11:55:56;;;;;;;22.02;8.80;;;;;;;24.11;72.38;99891.34;5032230;28;20511;-80
2023/10/13 11:58:22;;;;;;;18.35;8.70;;;;;;;23.97;71.74;99884.91;5041081;28;20432;-80
2023/10/13 12:00:54;;;;;;;18.67;8.45;;;;;;;23.89;70.87;99866.69;5044482;28;20084;-81
2023/10/13 12:06:19;;;;;;;16.63;7.68;;;;;;;23.74;71.63;99865.56;5039196;28;20056;-79
2023/10/13 12:08:51;;;;;;;25.63;8.10;;;;;;;23.81;71.72;99868.00;5040851;28;20101;-79
2023/10/13 12:11:38;;;;;;;14.75;7.80;;;;;;;23.80;71.97;99864.53;5039875;28;20053;-79
2023/10/13 12:14:16;;;;;;;19.63;7.85;;;;;;;23.79;72.01;99872.81;5040353;28;20575;-79
2023/10/13 12:16:48;;;;;;;20.88;7.78;;;;;;;23.75;71.58;99871.72;5041350;28;20045;-79
2023/10/13 12:19:16;;;;;;;24.33;8.38;;;;;;;23.60;71.86;99864.44;5034364;28;20420;-80
2023/10/13 12:21:44;;;;;;;18.23;7.90;;;;;;;23.57;72.26;99853.50;5042355;28;20056;-79
2023/10/13 12:24:22;;;;;;;16.67;7.88;;;;;;;23.60;72.53;99858.31;5047182;28;20416;-78
2023/10/13 12:26:55;;;;;;;21.77;7.50;;;;;;;23.67;72.61;99865.00;5047102;28;20384;-81
2023/10/13 12:29:28;;;;;;;19.60;8.15;;;;;;;23.64;71.57;99854.03;5048684;28;20047;-80
2023/10/13 12:32:07;;;;;;;20.20;7.22;;;;;;;23.65;71.67;99842.28;5048805;28;20075;-79
2023/10/13 12:34:57;;;;;;;18.80;8.13;;;;;;;23.51;71.75;99852.63;5049093;28;20081;-80
2023/10/13 12:37:38;;;;;;;17.13;7.50;;;;;;;23.64;70.89;99840.66;5045850;28;20049;-79
2023/10/13 12:51:19;;;;;;;19.48;8.48;;;;;;;23.95;69.10;99837.06;5038794;28;20061;-80
2023/10/13 12:53:46;;;;;;;28.20;7.78;;;;;;;23.95;68.34;99828.25;5039659;28;20049;-80
2023/10/13 12:56:14;;;;;;;19.95;7.90;;;;;;;23.90;68.93;99821.00;5039545;28;20136;-80
2023/10/13 12:58:41;;;;;;;19.90;7.78;;;;;;;23.91;68.75;99821.81;5038797;28;20056;-80
2023/10/13 13:01:08;;;;;;;18.25;7.75;;;;;;;23.85;68.42;99817.53;5038693;28;20053;-79
2023/10/13 13:03:35;;;;;;;27.70;8.52;;;;;;;23.87;67.98;99807.38;5036502;28;20104;-79
2023/10/13 13:06:07;;;;;;;16.65;6.88;;;;;;;23.95;68.57;99823.69;5036622;28;20426;-79
2023/10/13 13:08:35;;;;;;;21.90;7.10;;;;;;;23.97;69.43;99834.13;5036908;28;20054;-79
2023/10/13 13:11:02;;;;;;;14.10;7.68;;;;;;;23.91;69.67;99833.31;5037049;28;20456;-79
2023/10/13 13:13:31;;;;;;;14.90;7.40;;;;;;;23.90;68.74;99815.66;5036609;28;20049;-79
2023/10/13 13:15:58;;;;;;;16.33;7.22;;;;;;;;;;5036400;28;20045;-79
2023/10/13 13:18:24;;;;;;;21.55;8.02;;;;;;;23.73;68.34;99815.06;5036261;28;20073;-80
2023/10/13 13:20:54;;;;;;;16.33;7.13;;;;;;;23.75;68.00;99819.09;5036897;28;20478;-79
2023/10/13 13:23:25;;;;;;;19.73;8.10;;;;;;;23.71;68.20;99817.19;5036852;28;20084;-80